Airport View

Enter AWOS ICAO identifier for current METAR.

ex. KFNL

K20V 251635Z AUTO 21003KT 1 1/2SM -SN BKN008 BKN015 OVC041 00/M03 A2977 RMK AO2

25 Oct 2020 16:52

Frequency: 118.425

Phone: 970-724-9659

Other Area AWOS: KGNB - KC07 - K0CO - KEGE

TAF KEGE 251124Z 2512/2612 13003KT P6SM VCSH SCT050 BKN070 FM251600 25011KT 5SM -SHRASN BR SCT035 OVC040 FM252000 25008KT 2SM -SHSNRA BR SCT017 OVC030 FM252100 25008KT 3SM -SHSN BR SCT010 OVC020 FM252300 35008KT 1SM -SHSN SCT010 OVC030 FM260900 VRB04KT P6SM OVC015